Time;durP1;ratioP1;P1;durP2;ratioP2;P2;SDS_P1;SDS_P2;PMS_P1;PMS_P2;Temp;Humidity;BMP_temperature;BMP_pressure;BME280_temperature;BME280_humidity;BME280_pressure;Samples;Min_cycle;Max_cycle;Signal;HPM_P1;HPM_P2
2022/05/29 00:00:57;;;;;;;3.28;1.30;;;18.40;57.60;;;;;;5041891;28;20030;-62
2022/05/29 00:03:22;;;;;;;2.28;1.20;;;18.40;57.50;;;;;;5044243;28;20113;-64
2022/05/29 00:05:48;;;;;;;2.25;1.10;;;18.30;57.50;;;;;;5038527;28;20029;-63
2022/05/29 00:08:17;;;;;;;2.47;1.33;;;18.30;57.60;;;;;;5039567;28;20021;-62
2022/05/29 00:10:43;;;;;;;3.65;1.08;;;18.30;58.30;;;;;;5040837;28;20029;-63
2022/05/29 00:13:11;;;;;;;5.50;1.15;;;18.30;57.60;;;;;;5040510;28;20036;-61
2022/05/29 00:15:38;;;;;;;4.38;0.98;;;18.20;57.60;;;;;;5040376;28;20017;-61
2022/05/29 00:18:03;;;;;;;8.13;1.20;;;18.20;57.60;;;;;;5042354;28;20463;-63
2022/05/29 00:20:29;;;;;;;8.38;1.90;;;18.10;57.50;;;;;;5042922;28;20041;-63
2022/05/29 00:22:54;;;;;;;2.67;1.30;;;18.10;57.60;;;;;;5036969;28;20045;-63
2022/05/29 00:25:20;;;;;;;5.18;1.25;;;18.10;57.70;;;;;;5038611;28;20475;-63
2022/05/29 00:27:46;;;;;;;6.97;1.58;;;18.10;57.70;;;;;;5042264;28;20484;-63
2022/05/29 00:30:12;;;;;;;2.88;1.13;;;18.10;57.80;;;;;;5041375;28;20017;-63
2022/05/29 00:32:37;;;;;;;5.53;1.60;;;18.10;57.70;;;;;;5042385;28;20041;-62
2022/05/29 00:35:03;;;;;;;3.95;1.50;;;18.00;57.70;;;;;;5038933;28;20119;-64
2022/05/29 00:37:29;;;;;;;5.75;1.25;;;18.00;57.70;;;;;;5021149;28;20148;-62
2022/05/29 00:39:54;;;;;;;5.63;1.45;;;17.90;57.80;;;;;;5037992;28;20392;-61
2022/05/29 00:42:21;;;;;;;4.20;1.17;;;18.00;57.90;;;;;;5040888;28;20079;-63
2022/05/29 00:44:47;;;;;;;3.67;1.10;;;17.90;57.90;;;;;;5023543;28;20512;-63
2022/05/29 00:47:18;;;;;;;2.42;1.27;;;17.90;58.00;;;;;;5041625;28;20192;-63
2022/05/29 00:49:44;;;;;;;6.10;1.50;;;17.80;58.00;;;;;;5038727;28;20044;-63
2022/05/29 00:52:28;;;;;;;3.40;1.20;;;17.80;57.90;;;;;;5038483;28;20672;-62
2022/05/29 00:54:58;;;;;;;2.97;1.52;;;17.80;58.00;;;;;;5022812;28;20401;-62
2022/05/29 00:57:34;;;;;;;3.92;1.15;;;17.90;58.00;;;;;;5038973;28;20512;-61
2022/05/29 01:00:04;;;;;;;3.05;1.20;;;17.80;58.00;;;;;;5024857;28;20050;-61
2022/05/29 01:02:29;;;;;;;5.25;1.77;;;17.70;58.10;;;;;;5038622;28;20126;-61
2022/05/29 01:04:55;;;;;;;2.90;1.15;;;17.70;58.20;;;;;;5039304;28;20500;-63
2022/05/29 01:07:21;;;;;;;3.80;1.50;;;17.70;58.10;;;;;;5022942;28;20108;-63
2022/05/29 01:09:47;;;;;;;2.80;1.20;;;17.60;58.80;;;;;;5007421;28;20053;-64
2022/05/29 01:12:31;;;;;;;3.53;1.20;;;17.60;58.30;;;;;;5023058;28;20372;-61
2022/05/29 01:15:01;;;;;;;4.10;1.40;;;17.60;58.30;;;;;;5039205;28;20060;-63
2022/05/29 01:17:39;;;;;;;2.97;1.30;;;17.60;58.30;;;;;;5036987;28;20033;-62
2022/05/29 01:20:13;;;;;;;3.22;1.20;;;17.60;58.30;;;;;;5025389;28;20477;-63
2022/05/29 01:23:06;;;;;;;4.18;1.35;;;17.50;58.30;;;;;;5039449;28;20033;-62
2022/05/29 01:25:50;;;;;;;5.03;1.48;;;17.50;58.40;;;;;;5026617;28;20135;-62
2022/05/29 01:28:48;;;;;;;2.50;1.02;;;17.50;58.50;;;;;;5020223;28;20029;-63
2022/05/29 01:31:33;;;;;;;4.38;1.40;;;17.50;58.50;;;;;;5029230;28;20032;-64
2022/05/29 01:34:23;;;;;;;3.58;1.30;;;17.40;58.60;;;;;;5042276;28;20429;-63
2022/05/29 01:36:51;;;;;;;2.72;1.23;;;17.40;58.70;;;;;;5037101;28;20417;-62
2022/05/29 01:39:35;;;;;;;3.40;1.30;;;17.30;58.70;;;;;;5037955;28;20033;-64
2022/05/29 01:42:12;;;;;;;4.00;1.33;;;17.40;58.80;;;;;;5039040;28;20049;-63
2022/05/29 01:44:45;;;;;;;4.15;1.48;;;17.30;58.80;;;;;;5023297;28;20029;-62
2022/05/29 01:47:23;;;;;;;3.35;1.20;;;17.30;58.80;;;;;;5039022;28;20033;-62
2022/05/29 01:49:51;;;;;;;2.95;1.25;;;17.30;58.90;;;;;;5023750;28;20090;-64
2022/05/29 01:52:28;;;;;;;3.20;1.40;;;17.30;59.60;;;;;;5006844;28;20456;-63
2022/05/29 01:54:57;;;;;;;5.85;1.23;;;17.20;58.90;;;;;;5035968;28;20044;-66
2022/05/29 01:57:28;;;;;;;6.70;1.60;;;17.20;58.90;;;;;;5020917;28;20021;-62
2022/05/29 01:59:56;;;;;;;9.88;1.27;;;17.20;59.10;;;;;;5039759;28;20108;-63
2022/05/29 02:02:26;;;;;;;2.65;1.20;;;17.10;59.10;;;;;;5039446;28;20437;-61
2022/05/29 02:04:54;;;;;;;2.90;1.15;;;17.10;59.20;;;;;;5038947;28;20028;-62
2022/05/29 02:10:09;;;;;;;5.07;1.40;;;17.10;59.40;;;;;;5036574;28;20033;-63
2022/05/29 02:12:37;;;;;;;4.03;1.45;;;17.10;59.50;;;;;;5034847;28;20067;-62
2022/05/29 02:15:06;;;;;;;3.55;1.52;;;17.00;59.50;;;;;;5021614;28;20366;-62
2022/05/29 02:17:40;;;;;;;3.88;1.40;;;17.00;59.70;;;;;;5021306;28;20028;-62
2022/05/29 02:20:21;;;;;;;4.65;1.40;;;16.90;59.70;;;;;;5017819;28;20131;-62
2022/05/29 02:22:47;;;;;;;5.80;3.88;;;16.90;59.80;;;;;;5018923;28;20084;-62
2022/05/29 02:25:18;;;;;;;3.97;2.45;;;16.90;59.80;;;;;;5021528;28;20070;-63
2022/05/29 02:28:02;;;;;;;5.05;3.28;;;16.90;59.80;;;;;;5022472;28;20025;-61
2022/05/29 02:30:42;;;;;;;5.47;2.05;;;16.80;60.00;;;;;;5040416;28;20021;-60
2022/05/29 02:33:24;;;;;;;6.57;2.55;;;16.80;60.10;;;;;;5022232;28;20075;-61
2022/05/29 02:36:19;;;;;;;3.90;2.25;;;16.80;60.10;;;;;;5037218;28;20029;-63
2022/05/29 02:38:49;;;;;;;4.30;2.00;;;16.80;60.20;;;;;;5038991;28;20292;-60
2022/05/29 02:41:19;;;;;;;5.07;2.28;;;16.80;60.20;;;;;;5027112;28;20029;-62
2022/05/29 02:43:49;;;;;;;3.42;1.90;;;16.70;60.20;;;;;;5026592;28;20024;-62
2022/05/29 02:46:40;;;;;;;4.85;2.00;;;16.70;60.30;;;;;;5041218;28;20025;-60
2022/05/29 02:49:13;;;;;;;2.25;1.55;;;16.70;60.40;;;;;;5040582;28;20120;-60
2022/05/29 02:51:41;;;;;;;3.65;1.90;;;16.70;60.50;;;;;;5042532;28;20029;-63
2022/05/29 02:54:10;;;;;;;4.65;2.10;;;16.70;60.50;;;;;;5041897;28;20117;-61
2022/05/29 02:56:36;;;;;;;4.15;2.20;;;16.60;60.60;;;;;;5023805;28;20082;-62
2022/05/29 02:59:01;;;;;;;7.03;2.80;;;16.60;60.70;;;;;;5042233;28;20881;-63
2022/05/29 03:01:49;;;;;;;4.05;2.30;;;16.60;60.70;;;;;;5023595;28;20060;-61
2022/05/29 03:04:21;;;;;;;4.88;2.70;;;16.50;60.80;;;;;;5042108;28;21368;-61
2022/05/29 03:07:22;;;;;;;3.88;2.22;;;16.50;60.80;;;;;;5043056;28;20021;-62
2022/05/29 03:10:06;;;;;;;7.20;3.00;;;16.40;60.80;;;;;;5033205;28;20055;-61
2022/05/29 03:13:00;;;;;;;5.32;2.47;;;16.40;60.90;;;;;;5040975;28;20151;-62
2022/05/29 03:15:34;;;;;;;5.25;2.20;;;16.40;61.00;;;;;;5024565;28;20044;-63
2022/05/29 03:18:19;;;;;;;4.70;2.28;;;16.40;61.00;;;;;;5011057;28;20087;-61
2022/05/29 03:20:54;;;;;;;5.95;2.30;;;16.40;61.10;;;;;;5044537;28;20029;-61
2022/05/29 03:23:40;;;;;;;;;;;16.40;61.10;;;;;;5040468;28;20104;-62
2022/05/29 03:26:15;;;;;;;4.72;2.13;;;16.40;61.10;;;;;;5040052;28;19916;-62
2022/05/29 03:28:47;;;;;;;6.17;3.27;;;16.30;61.00;;;;;;5023720;28;20503;-62
2022/05/29 03:31:19;;;;;;;5.30;2.95;;;16.30;61.10;;;;;;5025614;28;20112;-61
2022/05/29 03:33:48;;;;;;;5.60;2.63;;;16.30;61.30;;;;;;5023458;28;20215;-61
2022/05/29 03:36:16;;;;;;;4.32;2.42;;;16.30;61.40;;;;;;5040240;28;20442;-61
2022/05/29 03:38:43;;;;;;;6.97;3.20;;;16.20;61.40;;;;;;5038870;28;20053;-61
2022/05/29 03:41:44;;;;;;;4.13;2.10;;;16.20;61.30;;;;;;5022606;28;20658;-63
2022/05/29 03:44:10;;;;;;;5.32;2.67;;;16.20;61.50;;;;;;5027257;28;20034;-62
2022/05/29 03:46:36;;;;;;;4.38;2.22;;;16.20;61.60;;;;;;5026799;28;20111;-63
2022/05/29 03:49:01;;;;;;;4.18;2.15;;;16.10;61.60;;;;;;5042215;28;20029;-63
2022/05/29 03:51:27;;;;;;;4.10;2.17;;;16.10;61.60;;;;;;5041001;28;20104;-62
2022/05/29 03:53:52;;;;;;;3.03;1.70;;;16.10;61.70;;;;;;5039290;28;20025;-63
2022/05/29 03:56:18;;;;;;;4.97;2.20;;;16.10;61.80;;;;;;5024992;28;20418;-61
2022/05/29 03:58:43;;;;;;;6.22;2.00;;;16.10;61.80;;;;;;5041311;28;20218;-63
2022/05/29 04:01:09;;;;;;;4.57;2.25;;;16.10;61.80;;;;;;5040215;28;20028;-62
2022/05/29 04:03:35;;;;;;;5.78;1.88;;;16.10;61.90;;;;;;5041385;28;20102;-61
2022/05/29 04:06:00;;;;;;;4.03;1.75;;;16.10;61.90;;;;;;5024491;28;20103;-63
2022/05/29 04:13:55;;;;;;;4.15;1.80;;;16.00;61.90;;;;;;5041213;28;20104;-62
2022/05/29 04:16:20;;;;;;;2.85;1.48;;;16.00;62.20;;;;;;5041210;28;20037;-62
2022/05/29 04:18:46;;;;;;;3.80;1.42;;;16.00;62.00;;;;;;5041919;28;20409;-61
2022/05/29 04:21:11;;;;;;;4.05;1.73;;;16.00;61.90;;;;;;5038002;28;20409;-62
2022/05/29 04:23:37;;;;;;;5.85;2.25;;;16.00;61.90;;;;;;5039454;28;20028;-62
2022/05/29 04:26:03;;;;;;;4.25;1.73;;;16.00;61.90;;;;;;5043465;28;20349;-62
2022/05/29 04:28:28;;;;;;;8.82;1.77;;;16.00;62.10;;;;;;5040180;28;20448;-62
2022/05/29 04:30:54;;;;;;;3.50;1.50;;;16.00;61.90;;;;;;5040734;28;20037;-63
2022/05/29 04:33:19;;;;;;;3.15;1.50;;;16.00;62.10;;;;;;5042036;28;20077;-61
2022/05/29 04:35:49;;;;;;;4.82;1.60;;;15.90;62.00;;;;;;5040489;28;20334;-62
2022/05/29 04:38:15;;;;;;;3.08;1.52;;;15.90;62.00;;;;;;5040635;28;20025;-63
2022/05/29 04:40:41;;;;;;;2.85;1.10;;;15.90;62.00;;;;;;5008317;28;20036;-61
2022/05/29 04:43:07;;;;;;;4.75;1.55;;;15.90;62.00;;;;;;5039457;28;20357;-61
2022/05/29 04:45:32;;;;;;;2.42;1.55;;;15.90;62.00;;;;;;5040236;28;20033;-63
2022/05/29 04:47:58;;;;;;;3.22;1.38;;;15.90;62.10;;;;;;5024696;28;20472;-61
2022/05/29 04:50:23;;;;;;;2.85;1.23;;;15.90;62.10;;;;;;5042050;28;20036;-61
2022/05/29 04:52:52;;;;;;;2.88;1.25;;;15.90;62.00;;;;;;5040647;28;20123;-62
2022/05/29 04:55:18;;;;;;;3.20;1.60;;;15.90;62.00;;;;;;5038977;28;20036;-62
2022/05/29 04:57:43;;;;;;;3.38;1.42;;;15.90;62.20;;;;;;5006268;28;20051;-60
2022/05/29 05:00:09;;;;;;;3.65;1.35;;;15.90;62.10;;;;;;5040578;28;20033;-60
2022/05/29 05:02:35;;;;;;;2.70;1.30;;;15.90;62.20;;;;;;5022963;28;20106;-63
2022/05/29 05:05:01;;;;;;;4.75;1.30;;;15.90;62.20;;;;;;5025634;28;20136;-63
2022/05/29 05:07:26;;;;;;;4.88;1.40;;;15.90;62.20;;;;;;5041033;28;20025;-64
2022/05/29 05:09:52;;;;;;;2.65;1.20;;;15.90;62.40;;;;;;5039025;28;20048;-62
2022/05/29 05:12:17;;;;;;;3.63;1.40;;;15.90;62.10;;;;;;5037352;28;20096;-62
2022/05/29 05:14:43;;;;;;;2.65;1.40;;;15.90;62.20;;;;;;5024176;28;20094;-62
2022/05/29 05:17:08;;;;;;;3.88;1.58;;;15.90;62.00;;;;;;5040152;28;20040;-63
2022/05/29 05:19:34;;;;;;;2.35;1.20;;;15.90;62.00;;;;;;5038711;28;20029;-63
2022/05/29 05:22:01;;;;;;;3.80;1.33;;;15.90;62.10;;;;;;5040083;28;20497;-62
2022/05/29 05:24:27;;;;;;;6.47;1.33;;;15.90;62.10;;;;;;5038758;28;20079;-62
2022/05/29 05:26:52;;;;;;;3.00;1.20;;;15.90;61.90;;;;;;5039510;28;20420;-63
2022/05/29 05:29:18;;;;;;;2.72;1.50;;;15.90;62.00;;;;;;5039246;28;20024;-63
2022/05/29 05:31:43;;;;;;;3.25;1.30;;;16.00;62.10;;;;;;5041665;28;20401;-62
2022/05/29 05:34:09;;;;;;;4.82;1.30;;;15.90;62.00;;;;;;5024307;28;20049;-63
2022/05/29 05:36:34;;;;;;;3.47;1.20;;;15.90;62.10;;;;;;5035638;28;20079;-62
2022/05/29 05:39:00;;;;;;;2.63;1.20;;;16.00;62.20;;;;;;5038096;28;20056;-62
2022/05/29 05:41:26;;;;;;;5.55;1.30;;;16.00;62.10;;;;;;5037856;28;20132;-61
2022/05/29 05:43:51;;;;;;;2.05;1.00;;;15.90;62.00;;;;;;5040531;28;20041;-62
2022/05/29 05:46:17;;;;;;;5.15;1.40;;;15.90;61.90;;;;;;5041556;28;20031;-62
2022/05/29 05:48:43;;;;;;;2.45;1.20;;;16.00;62.00;;;;;;5039361;28;20071;-63
2022/05/29 05:51:09;;;;;;;2.95;1.20;;;16.00;62.00;;;;;;5040220;28;20021;-60
2022/05/29 05:53:35;;;;;;;2.45;1.10;;;16.00;62.10;;;;;;5020880;28;20397;-62
2022/05/29 05:56:09;;;;;;;2.65;0.95;;;16.00;62.00;;;;;;5035172;28;20110;-60
2022/05/29 05:58:35;;;;;;;2.83;0.95;;;16.00;62.00;;;;;;5037840;28;20472;-63
2022/05/29 06:01:05;;;;;;;3.70;1.45;;;16.00;62.00;;;;;;5039169;28;20060;-62
2022/05/29 06:03:30;;;;;;;1.83;1.20;;;16.00;62.00;;;;;;5038096;28;20527;-63
2022/05/29 06:05:56;;;;;;;3.20;1.25;;;16.00;61.90;;;;;;5022817;28;20029;-60
2022/05/29 06:08:21;;;;;;;3.75;1.65;;;16.00;62.00;;;;;;5039869;28;20032;-63
2022/05/29 06:10:47;;;;;;;5.05;1.23;;;16.00;61.90;;;;;;5040618;28;20087;-62
2022/05/29 06:13:12;;;;;;;3.55;1.08;;;16.00;62.00;;;;;;5038116;28;20086;-63
2022/05/29 06:15:38;;;;;;;4.70;1.20;;;16.00;61.90;;;;;;5037736;28;20480;-61
2022/05/29 06:18:04;;;;;;;4.18;1.10;;;16.00;62.00;;;;;;5036178;28;20390;-61
2022/05/29 06:20:30;;;;;;;2.92;1.20;;;15.90;62.00;;;;;;5039320;28;20032;-62
2022/05/29 06:22:55;;;;;;;2.30;1.27;;;16.00;62.10;;;;;;5036341;28;21450;-60
2022/05/29 06:25:21;;;;;;;3.05;1.27;;;16.00;62.10;;;;;;5039604;28;20335;-62
2022/05/29 06:27:47;;;;;;;2.47;1.05;;;16.00;62.10;;;;;;5036145;28;20025;-62
2022/05/29 06:30:14;;;;;;;1.40;1.00;;;16.00;62.10;;;;;;5036848;28;20535;-60
2022/05/29 06:32:39;;;;;;;4.70;1.52;;;16.00;62.20;;;;;;5039043;28;20045;-62
2022/05/29 06:35:06;;;;;;;2.83;0.98;;;16.00;62.10;;;;;;5039286;28;20044;-61
2022/05/29 06:37:33;;;;;;;3.40;1.00;;;16.00;62.10;;;;;;5021499;28;20053;-63
2022/05/29 06:39:59;;;;;;;4.07;1.00;;;16.00;62.00;;;;;;5037803;28;20033;-62
2022/05/29 06:42:25;;;;;;;3.17;1.13;;;16.00;62.10;;;;;;5037339;28;20120;-62
2022/05/29 06:44:50;;;;;;;2.08;0.95;;;16.00;62.10;;;;;;5038645;28;20445;-62
2022/05/29 06:47:17;;;;;;;3.03;1.27;;;16.00;62.30;;;;;;5020417;28;20043;-61
2022/05/29 06:49:42;;;;;;;3.22;1.10;;;16.00;62.30;;;;;;5039603;28;20025;-61
2022/05/29 06:52:09;;;;;;;1.73;1.13;;;16.10;62.40;;;;;;5040447;28;20021;-61
2022/05/29 06:54:35;;;;;;;3.25;1.17;;;16.00;62.40;;;;;;5016283;28;20424;-63
2022/05/29 06:57:00;;;;;;;3.20;1.08;;;16.00;62.40;;;;;;5021493;28;20046;-63
2022/05/29 06:59:26;;;;;;;4.25;1.20;;;16.10;62.40;;;;;;5039367;28;20179;-61
2022/05/29 07:07:19;;;;;;;3.22;1.08;;;16.10;62.40;;;;;;5021469;28;20124;-63
2022/05/29 07:09:45;;;;;;;2.60;1.08;;;16.10;62.30;;;;;;5037528;28;20119;-60
2022/05/29 07:12:16;;;;;;;4.63;1.08;;;16.10;62.30;;;;;;5040113;28;20021;-61
2022/05/29 07:14:48;;;;;;;2.58;0.85;;;16.10;62.40;;;;;;5039817;28;20082;-61
2022/05/29 07:17:13;;;;;;;2.85;1.00;;;16.20;62.50;;;;;;5041253;28;20044;-63
2022/05/29 07:19:41;;;;;;;2.30;1.10;;;16.20;62.40;;;;;;5038204;28;20025;-63
2022/05/29 07:22:06;;;;;;;3.30;1.13;;;16.20;62.50;;;;;;5015431;28;20034;-61
2022/05/29 07:24:33;;;;;;;2.85;0.93;;;16.10;62.50;;;;;;5032377;28;20098;-61
2022/05/29 07:26:59;;;;;;;2.03;1.13;;;16.20;62.50;;;;;;5038312;28;20116;-61
2022/05/29 07:29:25;;;;;;;2.03;1.10;;;16.20;62.40;;;;;;5042515;28;20099;-63
2022/05/29 07:31:51;;;;;;;2.63;1.15;;;16.30;62.50;;;;;;5043736;28;20049;-62
2022/05/29 07:34:17;;;;;;;2.28;1.00;;;16.30;62.40;;;;;;5033931;28;20061;-61
2022/05/29 07:36:42;;;;;;;3.30;1.33;;;16.40;62.50;;;;;;5031155;28;20040;-60
2022/05/29 07:39:09;;;;;;;2.28;1.15;;;16.30;62.40;;;;;;5039599;28;20025;-62
2022/05/29 07:44:18;;;;;;;1.52;0.90;;;16.30;62.30;;;;;;5040517;28;20104;-60
2022/05/29 07:46:44;;;;;;;2.67;1.00;;;16.30;62.40;;;;;;5039064;28;20037;-63
2022/05/29 07:49:09;;;;;;;4.72;1.25;;;16.30;62.40;;;;;;5041107;28;20047;-62
2022/05/29 07:51:35;;;;;;;2.38;1.08;;;16.40;62.40;;;;;;5041331;28;20527;-61
2022/05/29 07:54:00;;;;;;;1.73;0.85;;;16.40;62.30;;;;;;5042004;28;20051;-62
2022/05/29 07:56:26;;;;;;;2.38;1.10;;;16.40;62.30;;;;;;5026673;28;20091;-61
2022/05/29 07:58:52;;;;;;;2.88;1.05;;;16.40;62.20;;;;;;5038492;28;20036;-63
2022/05/29 08:01:17;;;;;;;2.50;1.13;;;16.50;62.40;;;;;;5036983;28;20029;-61
2022/05/29 08:03:43;;;;;;;2.45;1.08;;;16.50;62.40;;;;;;5020119;28;20029;-62
2022/05/29 08:06:08;;;;;;;6.82;1.95;;;16.50;62.40;;;;;;5042031;28;20029;-62
2022/05/29 08:08:34;;;;;;;5.70;1.40;;;16.50;62.60;;;;;;5040253;28;20037;-62
2022/05/29 08:11:01;;;;;;;5.40;1.35;;;16.40;62.90;;;;;;5021502;28;20267;-61
2022/05/29 08:13:27;;;;;;;4.68;1.75;;;16.40;63.10;;;;;;5039232;28;20037;-63
2022/05/29 08:15:53;;;;;;;9.90;1.98;;;16.40;64.10;;;;;;5023782;28;20033;-62
2022/05/29 08:18:18;;;;;;;6.78;1.73;;;16.30;63.40;;;;;;5021789;28;20048;-62
2022/05/29 08:20:44;;;;;;;6.25;1.92;;;16.30;63.60;;;;;;5042733;28;20550;-61
2022/05/29 08:23:09;;;;;;;5.70;1.77;;;16.30;63.70;;;;;;5008272;28;20490;-63
2022/05/29 08:31:03;;;;;;;16.13;3.42;;;16.30;63.90;;;;;;5041861;28;20075;-63
2022/05/29 08:33:34;;;;;;;12.95;2.22;;;16.30;64.40;;;;;;5035962;28;20227;-62
2022/05/29 08:36:08;;;;;;;13.57;2.40;;;16.30;64.30;;;;;;5022760;28;20021;-62
2022/05/29 08:38:35;;;;;;;482.23;61.65;;;16.40;64.40;;;;;;5005649;28;20034;-61
2022/05/29 08:41:03;;;;;;;48.45;4.97;;;16.40;64.60;;;;;;5039054;28;20123;-61
2022/05/29 08:43:34;;;;;;;27.20;4.05;;;16.40;64.30;;;;;;5037683;28;20025;-63
2022/05/29 08:46:17;;;;;;;33.63;3.75;;;16.40;64.00;;;;;;5039062;28;20078;-63
2022/05/29 08:48:43;;;;;;;41.30;5.25;;;16.60;63.90;;;;;;5025794;28;20074;-60
2022/05/29 08:51:30;;;;;;;54.63;7.03;;;16.50;63.70;;;;;;5039875;28;20074;-62
2022/05/29 08:54:16;;;;;;;50.33;6.32;;;16.50;64.00;;;;;;5037340;28;20032;-63
2022/05/29 08:57:03;;;;;;;42.03;5.25;;;16.50;63.90;;;;;;5035536;28;20114;-62
2022/05/29 08:59:52;;;;;;;34.45;4.55;;;16.60;63.90;;;;;;5024058;28;20139;-61
2022/05/29 09:02:56;;;;;;;49.45;6.35;;;16.50;63.80;;;;;;5023528;28;20065;-63
2022/05/29 09:05:40;;;;;;;39.22;5.75;;;16.60;63.40;;;;;;5030628;28;20033;-62
2022/05/29 09:08:16;;;;;;;40.83;6.28;;;16.60;62.90;;;;;;5036695;28;20089;-61
2022/05/29 09:10:45;;;;;;;45.05;7.13;;;16.70;62.70;;;;;;5024673;28;20107;-60
2022/05/29 09:13:35;;;;;;;41.80;5.10;;;16.70;62.50;;;;;;5038118;28;20025;-60
2022/05/29 09:16:04;;;;;;;44.72;7.28;;;16.70;62.50;;;;;;5032598;28;20021;-64
2022/05/29 09:18:40;;;;;;;64.55;9.32;;;16.70;62.50;;;;;;5019202;28;20093;-62
2022/05/29 09:21:10;;;;;;;55.22;9.15;;;16.80;62.60;;;;;;5023065;28;20029;-61
2022/05/29 09:23:40;;;;;;;42.00;8.05;;;16.80;62.50;;;;;;5038211;28;20116;-63
2022/05/29 09:26:06;;;;;;;61.80;6.70;;;16.90;62.30;;;;;;5010327;28;20033;-62
2022/05/29 09:28:37;;;;;;;77.80;8.85;;;17.00;62.00;;;;;;5024702;28;20025;-62
2022/05/29 09:31:10;;;;;;;46.10;7.28;;;17.00;62.00;;;;;;5024967;28;20415;-62
2022/05/29 09:33:36;;;;;;;54.03;6.05;;;17.00;61.60;;;;;;5016545;28;20053;-63
2022/05/29 09:36:36;;;;;;;113.03;13.18;;;17.10;61.60;;;;;;4995623;28;20420;-63
2022/05/29 09:39:22;;;;;;;52.65;7.57;;;17.20;61.70;;;;;;5031018;28;20037;-62
2022/05/29 09:42:02;;;;;;;54.40;7.05;;;17.20;61.60;;;;;;5014556;28;20147;-64
2022/05/29 09:44:27;;;;;;;55.28;7.47;;;17.20;61.70;;;;;;5013624;28;20079;-62
2022/05/29 09:46:53;;;;;;;83.15;9.52;;;17.30;62.60;;;;;;5035604;28;20113;-61
2022/05/29 09:49:41;;;;;;;75.32;11.00;;;17.30;61.50;;;;;;5015772;28;20044;-62
2022/05/29 09:52:22;;;;;;;89.88;12.02;;;17.30;61.50;;;;;;5034768;28;20029;-61
2022/05/29 09:54:54;;;;;;;76.88;9.52;;;17.30;61.50;;;;;;5037441;28;20031;-61
2022/05/29 09:57:25;;;;;;;94.72;12.20;;;17.40;61.30;;;;;;5029453;28;20134;-63
2022/05/29 09:59:53;;;;;;;75.95;9.52;;;17.40;61.40;;;;;;5034104;28;20025;-63
2022/05/29 10:02:27;;;;;;;85.72;10.60;;;17.40;61.30;;;;;;5021242;28;20033;-62
2022/05/29 10:04:54;;;;;;;133.40;15.35;;;17.50;61.10;;;;;;5033404;28;20045;-63
2022/05/29 10:07:34;;;;;;;96.18;10.10;;;17.50;60.90;;;;;;5007774;28;20128;-63
2022/05/29 10:10:08;;;;;;;69.32;8.82;;;17.50;60.50;;;;;;5000386;28;20513;-62
2022/05/29 10:12:45;;;;;;;84.60;11.10;;;17.60;60.10;;;;;;5026202;28;20032;-62
2022/05/29 10:15:15;;;;;;;76.47;9.55;;;17.50;60.10;;;;;;5019273;28;20013;-61
2022/05/29 10:17:41;;;;;;;63.53;7.18;;;17.60;60.00;;;;;;5023597;28;20025;-63
2022/05/29 10:20:30;;;;;;;52.15;6.63;;;17.60;59.70;;;;;;5020962;28;20391;-62
2022/05/29 10:22:56;;;;;;;62.88;8.05;;;17.70;59.10;;;;;;5015139;28;20773;-63
2022/05/29 10:25:26;;;;;;;111.55;13.10;;;17.70;58.70;;;;;;5015915;28;20128;-61
2022/05/29 10:27:57;;;;;;;77.65;9.32;;;17.70;58.30;;;;;;5031410;28;20033;-61
2022/05/29 10:30:49;;;;;;;59.70;9.45;;;17.80;58.50;;;;;;5035110;28;20025;-63
2022/05/29 10:33:23;;;;;;;73.93;11.30;;;17.80;58.40;;;;;;5029991;28;20110;-62
2022/05/29 10:35:49;;;;;;;76.03;8.90;;;17.90;58.20;;;;;;5013432;28;20045;-63
2022/05/29 10:38:24;;;;;;;81.15;8.30;;;17.90;57.60;;;;;;5019390;28;20029;-63
2022/05/29 10:40:51;;;;;;;76.53;10.45;;;18.00;56.40;;;;;;5035733;28;20021;-63
2022/05/29 10:43:44;;;;;;;69.55;9.98;;;18.10;56.50;;;;;;5036906;28;20064;-62
2022/05/29 10:46:16;;;;;;;79.10;9.82;;;18.20;56.00;;;;;;5028443;28;20122;-62
2022/05/29 10:49:13;;;;;;;82.65;9.73;;;18.30;55.70;;;;;;5020031;28;20037;-63
2022/05/29 10:51:48;;;;;;;80.53;9.70;;;18.30;55.30;;;;;;5021893;28;21135;-63
2022/05/29 10:54:41;;;;;;;63.35;8.90;;;18.30;55.60;;;;;;5034522;28;20111;-62
2022/05/29 10:57:44;;;;;;;60.35;6.60;;;18.50;56.00;;;;;;5032599;28;20028;-62
2022/05/29 11:00:19;;;;;;;49.65;6.60;;;18.40;55.30;;;;;;5037698;28;20090;-63
2022/05/29 11:06:01;;;;;;;32.58;5.20;;;18.40;55.70;;;;;;5038343;28;20117;-62
2022/05/29 11:08:36;;;;;;;43.17;5.47;;;18.40;56.20;;;;;;5032869;28;20033;-61
2022/05/29 11:11:13;;;;;;;49.50;6.38;;;18.40;56.50;;;;;;5042054;28;20126;-61
2022/05/29 11:13:51;;;;;;;49.08;6.22;;;18.40;57.10;;;;;;5033369;28;20087;-61
2022/05/29 11:16:32;;;;;;;41.95;5.47;;;18.40;57.60;;;;;;5031528;28;20150;-62
2022/05/29 11:19:15;;;;;;;49.22;5.88;;;18.40;57.60;;;;;;5031483;28;20563;-62
2022/05/29 11:21:53;;;;;;;120.15;14.82;;;18.40;57.90;;;;;;5033276;28;20469;-61
2022/05/29 11:24:24;;;;;;;37.67;5.38;;;18.40;58.30;;;;;;5038447;28;20022;-63
2022/05/29 11:26:55;;;;;;;35.42;4.45;;;18.40;58.40;;;;;;5038154;28;20112;-62
2022/05/29 11:29:46;;;;;;;35.75;5.20;;;18.30;58.30;;;;;;5039553;28;20522;-62
2022/05/29 11:32:33;;;;;;;149.30;18.05;;;18.30;58.60;;;;;;5036344;28;20025;-61
2022/05/29 11:35:15;;;;;;;38.40;6.63;;;18.30;59.20;;;;;;5040676;28;20037;-61
2022/05/29 11:37:50;;;;;;;59.25;7.40;;;18.30;59.10;;;;;;5010712;28;20545;-62
2022/05/29 11:40:45;;;;;;;49.03;7.22;;;18.40;60.00;;;;;;5037182;28;20071;-62
2022/05/29 11:43:24;;;;;;;80.95;8.35;;;18.40;60.20;;;;;;5018500;28;20033;-63
2022/05/29 11:52:31;;;;;;;63.95;7.55;;;18.50;60.30;;;;;;5024692;28;20495;-63
2022/05/29 11:55:22;;;;;;;66.53;7.20;;;18.50;60.40;;;;;;5017292;28;20037;-63
2022/05/29 11:58:07;;;;;;;47.50;6.05;;;18.60;60.30;;;;;;5031740;28;20500;-63
2022/05/29 12:00:45;;;;;;;39.10;5.80;;;18.60;60.00;;;;;;5034190;28;20029;-61
2022/05/29 12:03:30;;;;;;;62.55;6.68;;;18.70;59.80;;;;;;5033962;28;20090;-61
2022/05/29 12:06:02;;;;;;;48.72;6.57;;;18.70;59.60;;;;;;5036068;28;20025;-62
2022/05/29 12:08:45;;;;;;;43.42;5.90;;;18.70;59.40;;;;;;4987260;28;20086;-62
2022/05/29 12:11:10;;;;;;;61.33;8.23;;;18.80;59.40;;;;;;5025944;28;20075;-61
2022/05/29 12:13:40;;;;;;;71.63;7.95;;;18.90;59.30;;;;;;5029867;28;20057;-60
2022/05/29 12:16:09;;;;;;;49.13;7.90;;;19.00;59.20;;;;;;5012975;28;20037;-62
2022/05/29 12:18:45;;;;;;;92.82;10.00;;;19.10;59.10;;;;;;4992972;28;20060;-63
2022/05/29 12:21:14;;;;;;;47.35;7.78;;;19.20;58.80;;;;;;4998488;28;20060;-61
2022/05/29 12:23:42;;;;;;;57.28;8.10;;;19.30;58.70;;;;;;4994321;28;20213;-62
2022/05/29 12:26:21;;;;;;;71.25;8.25;;;19.30;58.40;;;;;;4994622;28;20107;-63
2022/05/29 12:29:02;;;;;;;65.68;7.55;;;19.40;58.10;;;;;;5015601;28;20133;-61
2022/05/29 12:31:39;;;;;;;47.45;6.30;;;19.50;57.40;;;;;;5020882;28;20031;-62
2022/05/29 12:34:06;;;;;;;45.78;5.93;;;19.50;57.10;;;;;;5033354;28;20053;-64
2022/05/29 12:37:13;;;;;;;31.40;4.53;;;19.60;57.10;;;;;;5018132;28;20067;-63
2022/05/29 12:39:48;;;;;;;29.15;4.63;;;19.50;56.70;;;;;;5033705;28;20110;-63
2022/05/29 12:42:22;;;;;;;21.00;4.03;;;19.50;56.20;;;;;;5035305;28;20127;-63
2022/05/29 12:44:48;;;;;;;37.75;4.03;;;19.60;56.20;;;;;;5037793;28;20124;-62
2022/05/29 12:47:30;;;;;;;55.05;6.30;;;19.60;56.20;;;;;;5037052;28;20634;-62
2022/05/29 12:50:11;;;;;;;39.13;4.85;;;19.70;56.00;;;;;;5039054;28;20028;-64
2022/05/29 12:52:46;;;;;;;38.00;4.63;;;19.70;55.70;;;;;;5038349;28;20330;-63
2022/05/29 12:55:34;;;;;;;67.78;7.38;;;19.80;55.90;;;;;;5037635;28;20108;-63
2022/05/29 12:58:21;;;;;;;34.05;5.38;;;19.80;55.90;;;;;;5035948;28;20025;-62
2022/05/29 13:01:15;;;;;;;34.08;4.85;;;19.90;55.20;;;;;;5038412;28;20042;-63
2022/05/29 13:03:40;;;;;;;46.55;5.90;;;20.10;54.90;;;;;;5035558;28;20113;-62
2022/05/29 13:06:27;;;;;;;34.42;4.50;;;19.90;55.20;;;;;;5036483;28;20033;-66
2022/05/29 13:09:17;;;;;;;79.90;9.60;;;19.90;55.20;;;;;;5036286;28;20035;-63
2022/05/29 13:11:54;;;;;;;48.25;6.63;;;20.00;55.20;;;;;;5035613;28;21084;-63
2022/05/29 13:14:21;;;;;;;45.10;6.47;;;20.00;55.10;;;;;;5021828;28;20475;-62
2022/05/29 13:16:46;;;;;;;43.45;6.30;;;20.00;54.90;;;;;;5004614;28;20064;-62
2022/05/29 13:19:21;;;;;;;40.80;6.03;;;20.00;54.80;;;;;;5018842;28;20160;-63
2022/05/29 13:21:54;;;;;;;28.13;4.38;;;20.20;54.80;;;;;;5016678;28;20032;-63
2022/05/29 13:24:19;;;;;;;59.63;6.05;;;20.30;54.70;;;;;;5021032;28;20029;-64
2022/05/29 13:26:49;;;;;;;60.22;7.70;;;20.40;54.40;;;;;;5005897;28;20473;-67
2022/05/29 13:29:44;;;;;;;69.70;7.43;;;20.40;54.40;;;;;;5019822;28;20026;-62
2022/05/29 13:32:12;;;;;;;68.63;6.95;;;20.50;54.60;;;;;;5037505;28;20116;-64
2022/05/29 13:34:38;;;;;;;59.08;7.63;;;20.50;54.60;;;;;;5041066;28;20041;-63
2022/05/29 13:37:05;;;;;;;52.30;5.90;;;20.50;54.70;;;;;;5006770;28;20093;-64
2022/05/29 13:39:35;;;;;;;56.33;6.05;;;20.60;54.80;;;;;;5017813;28;20052;-63